Flowerfield, New York
Current Conditions -  °F | °C
As of 7:56 AM on Thursday 23 Oct 2014 (Local Time) from KISP Reporting Station
Light Rain Light Rain  
Wind Chill: 52°   Ceiling: 1800
Heat Index: 52°   Visibility: 7mi
Dew Point: 47°   Wind: 18mph
Humidity: 83%   Direction: 360°N
Pressure: 29.62"   Gusts: 29mph
Location:  40.8903°N, 73.169°W
Report Text: KISP 231156Z 36016G25KT 7SM -RA OVC018 11/08 A2962 RMK AO2 RAE11B54 SLP029 P0000 60028 70087 T01110083 10111 20100 55005
Loading
Personal Weather Stations






























Interactive Weather Map
Tropical Storm Tracking
New forecast layout! Learn more

10-Day Weather Forecast

Advertisements
Track Severe Weather on mobile